Time;durP1;ratioP1;P1;durP2;ratioP2;P2;SDS_P1;SDS_P2;PMS_P1;PMS_P2;Temp;Humidity;BMP_temperature;BMP_pressure;BME280_temperature;BME280_humidity;BME280_pressure;Samples;Min_cycle;Max_cycle;Signal;HPM_P1;HPM_P2
2023/03/02 00:00:45;;;;;;;9.95;7.50;;;;;;;;;;4919894;28;20051;-79
2023/03/02 00:03:12;;;;;;;8.05;7.22;;;;;;;;;;4890598;28;20514;-79
2023/03/02 00:05:40;;;;;;;10.05;7.93;;;;;;;;;;4920603;28;20081;-79
2023/03/02 00:08:06;;;;;;;10.40;8.10;;;;;;;;;;4908531;28;20125;-79
2023/03/02 00:10:33;;;;;;;12.55;8.15;;;;;;;;;;4925158;28;20772;-79
2023/03/02 00:13:00;;;;;;;11.07;7.63;;;;;;;;;;4922571;28;20051;-80
2023/03/02 00:15:26;;;;;;;10.80;8.13;;;;;;;;;;4925451;28;20066;-79
2023/03/02 00:17:52;;;;;;;11.27;8.43;;;;;;;;;;4911841;28;20059;-79
2023/03/02 00:20:18;;;;;;;11.90;8.65;;;;;;;;;;4922879;28;20044;-79
2023/03/02 00:22:45;;;;;;;12.90;8.75;;;;;;;;;;4923542;28;20047;-79
2023/03/02 00:25:12;;;;;;;12.52;9.20;;;;;;;;;;4923808;28;20178;-79
2023/03/02 00:27:39;;;;;;;13.18;9.18;;;;;;;;;;4927968;28;20054;-79
2023/03/02 00:30:05;;;;;;;13.60;10.40;;;;;;;;;;4925844;28;20716;-79
2023/03/02 00:32:31;;;;;;;13.70;11.05;;;;;;;;;;4924870;28;20368;-80
2023/03/02 00:34:57;;;;;;;18.00;12.60;;;;;;;;;;4897392;28;20495;-79
2023/03/02 00:37:26;;;;;;;15.57;12.75;;;;;;;;;;4921937;28;20707;-79
2023/03/02 00:39:52;;;;;;;16.33;12.30;;;;;;;;;;4923791;28;20043;-79
2023/03/02 00:42:19;;;;;;;16.73;12.80;;;;;;;;;;4922835;28;20046;-79
2023/03/02 00:44:45;;;;;;;19.13;13.57;;;;;;;;;;4923219;28;20507;-79
2023/03/02 00:47:11;;;;;;;20.67;15.57;;;;;;;;;;4899061;28;20043;-79
2023/03/02 00:49:37;;;;;;;19.77;14.82;;;;;;;;;;4907512;28;20062;-79
2023/03/02 00:52:03;;;;;;;19.33;14.75;;;;;;;;;;4912281;28;20050;-79
2023/03/02 00:54:30;;;;;;;19.40;14.52;;;;;;;;;;4907661;28;20038;-80
2023/03/02 00:56:56;;;;;;;21.52;15.30;;;;;;;;;;4918567;28;20050;-80
2023/03/02 00:59:25;;;;;;;21.33;15.10;;;;;;;;;;4920840;28;20499;-79
2023/03/02 01:01:58;;;;;;;23.98;16.98;;;;;;;;;;4909261;28;20051;-79
2023/03/02 01:04:30;;;;;;;23.92;16.67;;;;;;;;;;4904950;28;20042;-80
2023/03/02 01:07:03;;;;;;;23.23;16.42;;;;;;;;;;4904710;28;20447;-79
2023/03/02 01:09:29;;;;;;;24.33;16.65;;;;;;;;;;4918761;28;20078;-79
2023/03/02 01:11:56;;;;;;;23.90;17.20;;;;;;;;;;4905580;28;20066;-79
2023/03/02 01:14:22;;;;;;;24.63;18.33;;;;;;;;;;4924586;28;20074;-78
2023/03/02 01:16:48;;;;;;;26.70;18.50;;;;;;;;;;4922486;28;20070;-79
2023/03/02 01:19:14;;;;;;;27.15;18.92;;;;;;;;;;4922190;28;20043;-79
2023/03/02 01:21:41;;;;;;;29.40;19.58;;;;;;;;;;4906390;28;20047;-79
2023/03/02 01:24:07;;;;;;;28.52;19.35;;;;;;;;;;4920835;28;20119;-78
2023/03/02 01:26:34;;;;;;;31.00;20.45;;;;;;;;;;4916548;28;20124;-77
2023/03/02 01:29:00;;;;;;;32.13;22.70;;;;;;;;;;4902525;28;20408;-78
2023/03/02 01:31:27;;;;;;;31.23;23.17;;;;;;;;;;4911166;28;20057;-78
2023/03/02 01:33:53;;;;;;;33.63;22.00;;;;;;;;;;4907898;28;20094;-78
2023/03/02 01:36:19;;;;;;;33.58;22.13;;;;;;;;;;4904833;28;20390;-78
2023/03/02 01:38:45;;;;;;;32.35;22.52;;;;;;;;;;4920241;28;20051;-79
2023/03/02 01:41:12;;;;;;;35.13;20.80;;;;;;;;;;4903397;28;20435;-77
2023/03/02 01:43:38;;;;;;;29.95;20.42;;;;;;;;;;4890170;28;20062;-77
2023/03/02 01:46:07;;;;;;;31.15;22.10;;;;;;;;;;4918851;28;20120;-77
2023/03/02 01:48:35;;;;;;;34.30;22.67;;;;;;;;;;4917986;28;21717;-77
2023/03/02 01:51:02;;;;;;;32.30;22.50;;;;;;;;;;4924540;28;20133;-77
2023/03/02 01:53:31;;;;;;;36.00;23.75;;;;;;;;;;4913688;28;20484;-78
2023/03/02 01:55:57;;;;;;;36.35;24.15;;;;;;;;;;4936805;28;20055;-78
2023/03/02 01:58:25;;;;;;;36.30;23.48;;;;;;;;;;4922049;28;20101;-78
2023/03/02 02:00:52;;;;;;;40.78;25.30;;;;;;;;;;4919061;28;20742;-78
2023/03/02 02:03:20;;;;;;;41.35;25.95;;;;;;;;;;4905004;28;20041;-78
2023/03/02 02:05:50;;;;;;;38.90;24.52;;;;;;;;;;4908265;28;20118;-78
2023/03/02 02:08:16;;;;;;;47.28;26.85;;;;;;;;;;4911793;28;20381;-78
2023/03/02 02:10:42;;;;;;;43.17;26.42;;;;;;;;;;4921771;28;20089;-79
2023/03/02 02:13:09;;;;;;;42.50;26.35;;;;;;;;;;4921818;28;20444;-78
2023/03/02 02:15:37;;;;;;;49.28;27.48;;;;;;;;;;4912425;28;20479;-78
2023/03/02 02:18:03;;;;;;;43.17;26.90;;;;;;;;;;4898196;28;20942;-78
2023/03/02 02:20:40;;;;;;;47.22;27.45;;;;;;;;;;4892176;28;20503;-78
2023/03/02 02:23:06;;;;;;;45.60;28.00;;;;;;;;;;4909081;28;20512;-78
2023/03/02 02:25:52;;;;;;;51.38;29.38;;;;;;;;;;4908659;28;20125;-78
2023/03/02 02:28:21;;;;;;;55.38;30.17;;;;;;;;;;4914639;28;20992;-77
2023/03/02 02:30:50;;;;;;;58.75;30.83;;;;;;;;;;4917156;28;20054;-78
2023/03/02 02:33:19;;;;;;;57.33;29.95;;;;;;;;;;4944356;28;20047;-78
2023/03/02 02:35:46;;;;;;;64.95;32.30;;;;;;;;;;4908302;28;20066;-78
2023/03/02 02:38:13;;;;;;;62.78;32.45;;;;;;;;;;4915853;28;20053;-78
2023/03/02 02:40:39;;;;;;;69.05;32.05;;;;;;;;;;4918389;28;20069;-78
2023/03/02 02:43:06;;;;;;;66.32;31.85;;;;;;;;;;4917410;28;20067;-78
2023/03/02 02:45:34;;;;;;;75.10;34.30;;;;;;;;;;4912686;28;20047;-79
2023/03/02 02:48:00;;;;;;;78.50;34.50;;;;;;;;;;4935725;28;20038;-78
2023/03/02 02:50:29;;;;;;;75.38;33.15;;;;;;;;;;4922020;28;20046;-78
2023/03/02 02:52:59;;;;;;;73.47;33.42;;;;;;;;;;4934635;28;20065;-77
2023/03/02 02:55:26;;;;;;;81.18;35.45;;;;;;;;;;4944895;28;20059;-78
2023/03/02 02:57:54;;;;;;;70.20;32.97;;;;;;;;;;4924218;28;20047;-78
2023/03/02 03:00:21;;;;;;;78.47;35.05;;;;;;;;;;4919469;28;20179;-78
2023/03/02 03:02:51;;;;;;;86.28;37.70;;;;;;;;;;4925187;28;20047;-77
2023/03/02 03:05:17;;;;;;;83.60;35.13;;;;;;;;;;4922158;28;20082;-78
2023/03/02 03:07:43;;;;;;;83.35;35.58;;;;;;;;;;4894041;28;20142;-78
2023/03/02 03:10:10;;;;;;;84.55;36.00;;;;;;;;;;4923649;28;20078;-77
2023/03/02 03:12:37;;;;;;;95.30;37.05;;;;;;;;;;4925109;28;20136;-77
2023/03/02 03:15:04;;;;;;;90.60;35.53;;;;;;;;;;4924792;28;20054;-77
2023/03/02 03:17:30;;;;;;;83.88;33.85;;;;;;;;;;4916311;28;20129;-77
2023/03/02 03:20:04;;;;;;;85.32;33.97;;;;;;;;;;4916635;28;20121;-78
2023/03/02 03:22:31;;;;;;;95.15;36.70;;;;;;;;;;4922624;28;20047;-78
2023/03/02 03:24:57;;;;;;;88.80;34.92;;;;;;;;;;4920261;28;21022;-78
2023/03/02 03:27:23;;;;;;;89.00;35.00;;;;;;;;;;4909583;28;20039;-77
2023/03/02 03:29:50;;;;;;;107.18;36.20;;;;;;;;;;4910509;28;20547;-77
2023/03/02 03:32:16;;;;;;;89.65;34.97;;;;;;;;;;4912863;28;20127;-78
2023/03/02 03:34:43;;;;;;;83.15;33.90;;;;;;;;;;4922578;28;20042;-77
2023/03/02 03:37:10;;;;;;;87.43;34.03;;;;;;;;;;4904558;28;20094;-77
2023/03/02 03:39:36;;;;;;;83.53;34.17;;;;;;;;;;4922660;28;20039;-77
2023/03/02 03:42:03;;;;;;;84.80;32.47;;;;;;;;;;4912254;28;20078;-77
2023/03/02 03:44:29;;;;;;;80.10;31.48;;;;;;;;;;4922926;28;21989;-78
2023/03/02 03:46:55;;;;;;;82.68;33.13;;;;;;;;;;4923317;28;20047;-77
2023/03/02 03:49:21;;;;;;;81.95;32.35;;;;;;;;;;4907981;28;20064;-78
2023/03/02 03:51:47;;;;;;;86.35;34.63;;;;;;;;;;4921705;28;20046;-78
2023/03/02 03:54:13;;;;;;;93.18;33.15;;;;;;;;;;4909867;28;20085;-78
2023/03/02 03:56:41;;;;;;;86.15;31.92;;;;;;;;;;4919967;29;20064;-78
2023/03/02 03:59:09;;;;;;;88.18;34.22;;;;;;;;;;4911331;29;20058;-78
2023/03/02 04:01:37;;;;;;;79.45;30.25;;;;;;;;;;4921242;29;21825;-78
2023/03/02 04:04:04;;;;;;;73.03;29.17;;;;;;;;;;4921019;29;20583;-78
2023/03/02 04:06:30;;;;;;;77.93;30.33;;;;;;;;;;4921072;28;20992;-78
2023/03/02 04:08:57;;;;;;;80.85;31.60;;;;;;;;;;4920866;29;20055;-78
2023/03/02 04:11:23;;;;;;;66.88;29.85;;;;;;;;;;4921867;29;20492;-78
2023/03/02 04:13:49;;;;;;;59.58;27.40;;;;;;;;;;4920744;29;20055;-78
2023/03/02 04:16:15;;;;;;;57.78;27.27;;;;;;;;;;4921554;28;20043;-78
2023/03/02 04:18:42;;;;;;;60.20;27.63;;;;;;;;;;4921949;28;20130;-78
2023/03/02 04:21:08;;;;;;;63.17;27.48;;;;;;;;;;4918606;28;20102;-78
2023/03/02 04:23:34;;;;;;;71.13;25.60;;;;;;;;;;4905569;29;20035;-78
2023/03/02 04:26:03;;;;;;;63.72;24.35;;;;;;;;;;4910131;29;20185;-79
2023/03/02 04:28:30;;;;;;;55.75;25.02;;;;;;;;;;4919016;28;20140;-78
2023/03/02 04:30:56;;;;;;;48.88;24.58;;;;;;;;;;4897354;28;20074;-78
2023/03/02 04:33:22;;;;;;;48.03;26.40;;;;;;;;;;4906829;29;21852;-78
2023/03/02 04:35:48;;;;;;;55.20;25.70;;;;;;;;;;4926195;28;20043;-78
2023/03/02 04:38:14;;;;;;;49.63;26.65;;;;;;;;;;4910905;29;20044;-77
2023/03/02 04:40:40;;;;;;;47.10;26.10;;;;;;;;;;4919106;28;20054;-78
2023/03/02 04:43:06;;;;;;;57.25;26.45;;;;;;;;;;4897027;28;20064;-78
2023/03/02 04:45:33;;;;;;;48.55;26.48;;;;;;;;;;4911774;29;20099;-78
2023/03/02 04:47:59;;;;;;;69.70;24.27;;;;;;;;;;4921174;28;20051;-78
2023/03/02 04:50:25;;;;;;;70.00;25.30;;;;;;;;;;4913234;29;20058;-79
2023/03/02 04:52:51;;;;;;;48.70;25.27;;;;;;;;;;4909476;28;20515;-78
2023/03/02 04:55:18;;;;;;;72.28;25.88;;;;;;;;;;4909916;29;20055;-78
2023/03/02 04:57:44;;;;;;;111.65;26.60;;;;;;;;;;4909263;29;20044;-82
2023/03/02 05:00:11;;;;;;;76.15;24.70;;;;;;;;;;4923492;29;20039;-80
2023/03/02 05:02:38;;;;;;;78.07;26.13;;;;;;;;;;4904135;28;21742;-78
2023/03/02 05:05:04;;;;;;;157.27;33.63;;;;;;;;;;4910727;28;20081;-78
2023/03/02 05:07:30;;;;;;;169.23;31.63;;;;;;;;;;4900289;28;20039;-78
2023/03/02 05:09:56;;;;;;;93.60;29.88;;;;;;;;;;4903447;29;20082;-78
2023/03/02 05:12:23;;;;;;;155.43;33.63;;;;;;;;;;4901327;29;21145;-77
2023/03/02 05:14:49;;;;;;;146.05;36.13;;;;;;;;;;4914128;28;20399;-77
2023/03/02 05:17:15;;;;;;;95.32;35.00;;;;;;;;;;4897809;29;20047;-78
2023/03/02 05:19:41;;;;;;;120.18;34.55;;;;;;;;;;4904020;29;20098;-77
2023/03/02 05:22:07;;;;;;;114.97;36.30;;;;;;;;;;4899241;28;20051;-78
2023/03/02 05:24:34;;;;;;;169.18;35.72;;;;;;;;;;4889285;28;20078;-78
2023/03/02 05:27:00;;;;;;;136.88;34.50;;;;;;;;;;4920146;28;20114;-78
2023/03/02 05:29:26;;;;;;;97.40;33.30;;;;;;;;;;4912920;28;21881;-78
2023/03/02 05:31:52;;;;;;;247.98;35.60;;;;;;;;;;4909783;28;20685;-78
2023/03/02 05:34:18;;;;;;;89.15;31.13;;;;;;;;;;4908206;28;20488;-78
2023/03/02 05:36:45;;;;;;;134.25;30.75;;;;;;;;;;4901661;28;20135;-78
2023/03/02 05:39:11;;;;;;;158.98;33.08;;;;;;;;;;4906505;28;20333;-79
2023/03/02 05:41:37;;;;;;;92.05;27.90;;;;;;;;;;4891321;28;20043;-77
2023/03/02 05:44:04;;;;;;;83.97;29.58;;;;;;;;;;4905962;28;20373;-77
2023/03/02 05:46:31;;;;;;;66.60;29.17;;;;;;;;;;4912439;28;20070;-78
2023/03/02 05:48:57;;;;;;;70.68;27.73;;;;;;;;;;4901459;29;20170;-78
2023/03/02 05:51:23;;;;;;;102.10;30.25;;;;;;;;;;4904939;29;20063;-78
2023/03/02 05:53:49;;;;;;;92.13;27.98;;;;;;;;;;4914786;29;20047;-79
2023/03/02 05:56:15;;;;;;;109.15;29.50;;;;;;;;;;4905295;29;20090;-81
2023/03/02 05:58:41;;;;;;;109.65;34.92;;;;;;;;;;4916608;29;20509;-82
2023/03/02 06:01:09;;;;;;;86.63;32.90;;;;;;;;;;4907866;29;20047;-82
2023/03/02 06:03:36;;;;;;;131.63;32.92;;;;;;;;;;4898729;29;20047;-81
2023/03/02 06:06:02;;;;;;;165.90;33.75;;;;;;;;;;4901649;29;20050;-81
2023/03/02 06:08:28;;;;;;;141.82;33.00;;;;;;;;;;4908163;29;20066;-82
2023/03/02 06:10:57;;;;;;;99.75;32.83;;;;;;;;;;4921042;28;20052;-81
2023/03/02 06:13:23;;;;;;;128.50;33.28;;;;;;;;;;4920168;29;20079;-81
2023/03/02 06:15:49;;;;;;;133.18;31.20;;;;;;;;;;4924899;28;20067;-81
2023/03/02 06:18:15;;;;;;;106.40;31.23;;;;;;;;;;4919255;28;20121;-80
2023/03/02 06:20:42;;;;;;;116.47;31.50;;;;;;;;;;4917776;29;20058;-80
2023/03/02 06:23:08;;;;;;;73.07;30.08;;;;;;;;;;4919967;28;20077;-81
2023/03/02 06:25:35;;;;;;;157.68;31.55;;;;;;;;;;4911506;29;20043;-80
2023/03/02 06:28:01;;;;;;;55.85;27.05;;;;;;;;;;4896872;29;20130;-80
2023/03/02 06:30:28;;;;;;;161.80;31.42;;;;;;;;;;4902962;29;20047;-80
2023/03/02 06:32:54;;;;;;;101.72;28.00;;;;;;;;;;4917865;29;20719;-81
2023/03/02 06:35:22;;;;;;;95.57;27.42;;;;;;;;;;4909210;29;20046;-81
2023/03/02 06:37:48;;;;;;;129.13;26.42;;;;;;;;;;4904330;29;20505;-80
2023/03/02 06:40:14;;;;;;;152.30;30.35;;;;;;;;;;4903876;28;20054;-81
2023/03/02 06:42:41;;;;;;;79.95;27.15;;;;;;;;;;4911917;29;20039;-80
2023/03/02 06:45:08;;;;;;;82.97;27.50;;;;;;;;;;4906973;29;20525;-81
2023/03/02 06:47:34;;;;;;;121.25;33.10;;;;;;;;;;4889248;29;20043;-81
2023/03/02 06:50:01;;;;;;;112.40;27.55;;;;;;;;;;4901746;29;20044;-81
2023/03/02 06:52:27;;;;;;;196.95;31.80;;;;;;;;;;4905221;29;20055;-81
2023/03/02 06:54:53;;;;;;;105.03;28.90;;;;;;;;;;4922766;28;20047;-81
2023/03/02 06:57:20;;;;;;;80.20;25.48;;;;;;;;;;4924723;28;20217;-82
2023/03/02 06:59:46;;;;;;;146.77;27.85;;;;;;;;;;4906408;28;20265;-81
2023/03/02 07:02:12;;;;;;;80.25;26.40;;;;;;;;;;4926865;28;20473;-81
2023/03/02 07:04:38;;;;;;;116.70;27.88;;;;;;;;;;4925830;28;20130;-81
2023/03/02 07:07:04;;;;;;;152.80;28.48;;;;;;;;;;4912010;28;20145;-82
2023/03/02 07:09:33;;;;;;;93.10;25.80;;;;;;;;;;4917972;28;20074;-81
2023/03/02 07:12:00;;;;;;;79.25;26.35;;;;;;;;;;4920369;28;20388;-81
2023/03/02 07:14:26;;;;;;;79.72;24.20;;;;;;;;;;4923356;28;20115;-81
2023/03/02 07:16:52;;;;;;;60.00;24.63;;;;;;;;;;4926978;28;20042;-81
2023/03/02 07:19:18;;;;;;;53.80;23.50;;;;;;;;;;4927232;28;20489;-81
2023/03/02 07:21:44;;;;;;;61.28;24.67;;;;;;;;;;4920264;28;20062;-81
2023/03/02 07:24:10;;;;;;;55.40;24.02;;;;;;;;;;4936788;28;20049;-81
2023/03/02 07:26:36;;;;;;;53.58;23.70;;;;;;;;;;4924863;28;20039;-81
2023/03/02 07:29:03;;;;;;;55.88;23.70;;;;;;;;;;4908855;28;20054;-80
2023/03/02 07:31:29;;;;;;;55.53;22.02;;;;;;;;;;4918844;28;20046;-81
2023/03/02 07:33:55;;;;;;;60.40;23.23;;;;;;;;;;4920142;28;20055;-81
2023/03/02 07:36:21;;;;;;;49.25;21.75;;;;;;;;;;4937804;28;20043;-81
2023/03/02 07:38:47;;;;;;;73.38;23.00;;;;;;;;;;4922153;28;20153;-80
2023/03/02 07:41:15;;;;;;;49.97;22.05;;;;;;;;;;4906390;28;20128;-80
2023/03/02 07:43:41;;;;;;;44.40;20.48;;;;;;;;;;4916010;28;20047;-82
2023/03/02 07:46:07;;;;;;;46.65;21.15;;;;;;;;;;4910952;28;20046;-81
2023/03/02 07:48:34;;;;;;;52.92;19.80;;;;;;;;;;4919628;28;20043;-81
2023/03/02 07:51:00;;;;;;;39.58;20.13;;;;;;;;;;4922664;28;20146;-81
2023/03/02 07:53:27;;;;;;;37.75;19.23;;;;;;;;;;4927867;28;20070;-79
2023/03/02 07:55:53;;;;;;;125.03;23.02;;;;;;;;;;4905094;28;20069;-79
2023/03/02 07:58:20;;;;;;;86.55;19.88;;;;;;;;;;4921482;28;20043;-79
2023/03/02 08:00:46;;;;;;;43.72;20.08;;;;;;;;;;4896435;28;20094;-79
2023/03/02 08:03:12;;;;;;;33.58;17.58;;;;;;;;;;4908263;28;20050;-79
2023/03/02 08:05:38;;;;;;;37.47;17.98;;;;;;;;;;4909491;28;20047;-78
2023/03/02 08:08:04;;;;;;;32.95;18.17;;;;;;;;;;4911339;28;20098;-79
2023/03/02 08:10:30;;;;;;;48.55;19.20;;;;;;;;;;4906946;28;20050;-78
2023/03/02 08:12:56;;;;;;;40.28;19.30;;;;;;;;;;4921132;28;20095;-78
2023/03/02 08:15:22;;;;;;;35.83;17.67;;;;;;;;;;4906070;28;20065;-78
2023/03/02 08:17:48;;;;;;;36.75;17.27;;;;;;;;;;4908033;28;20046;-81
2023/03/02 08:20:15;;;;;;;53.13;18.55;;;;;;;;;;4910566;28;20490;-79
2023/03/02 08:22:41;;;;;;;50.55;18.80;;;;;;;;;;4907295;28;20055;-78
2023/03/02 08:25:07;;;;;;;61.03;19.10;;;;;;;;;;4922155;28;20055;-79
2023/03/02 08:27:33;;;;;;;99.68;20.67;;;;;;;;;;4891846;28;20046;-78
2023/03/02 08:29:59;;;;;;;68.07;19.45;;;;;;;;;;4928878;28;20094;-78
2023/03/02 08:32:26;;;;;;;98.72;19.08;;;;;;;;;;4920592;28;20583;-78
2023/03/02 08:34:52;;;;;;;40.38;19.10;;;;;;;;;;4922069;28;20039;-79
2023/03/02 08:37:18;;;;;;;84.95;20.30;;;;;;;;;;4907281;28;20597;-79
2023/03/02 08:39:44;;;;;;;73.57;20.38;;;;;;;;;;4923132;28;20069;-79
2023/03/02 08:42:10;;;;;;;36.63;18.02;;;;;;;;;;4908072;28;20082;-79
2023/03/02 08:44:36;;;;;;;103.93;18.67;;;;;;;;;;4925208;28;20488;-79
2023/03/02 08:47:02;;;;;;;58.20;19.95;;;;;;;;;;4913129;28;20046;-79
2023/03/02 08:49:28;;;;;;;64.13;19.05;;;;;;;;;;4908105;28;20055;-79
2023/03/02 08:51:55;;;;;;;71.28;19.92;;;;;;;;;;4896359;28;20046;-78
2023/03/02 08:54:21;;;;;;;46.17;19.50;;;;;;;;;;4897982;28;20054;-78
2023/03/02 08:56:48;;;;;;;48.15;17.52;;;;;;;;;;4924211;28;20162;-79
2023/03/02 08:59:15;;;;;;;33.25;13.32;;;;;;;;;;4907671;28;20069;-79
2023/03/02 09:01:41;;;;;;;109.60;17.80;;;;;;;;;;4926877;28;20047;-76
2023/03/02 09:04:09;;;;;;;32.50;16.90;;;;;;;;;;4914046;28;20041;-75
2023/03/02 09:06:37;;;;;;;51.13;16.75;;;;;;;;;;4910499;28;20035;-76
2023/03/02 09:09:03;;;;;;;33.75;16.35;;;;;;;;;;4922984;28;20077;-76
2023/03/02 09:11:29;;;;;;;29.27;15.80;;;;;;;;;;4911985;28;20395;-76
2023/03/02 09:13:55;;;;;;;40.28;16.52;;;;;;;;;;4905749;28;20043;-76
2023/03/02 09:16:25;;;;;;;30.67;17.20;;;;;;;;;;4922178;28;20173;-76
2023/03/02 09:18:51;;;;;;;32.33;17.13;;;;;;;;;;4923207;28;20144;-76
2023/03/02 09:21:18;;;;;;;26.92;13.80;;;;;;;;;;4912219;28;20473;-76
2023/03/02 09:23:44;;;;;;;34.10;16.65;;;;;;;;;;4908808;28;20060;-75
2023/03/02 09:26:10;;;;;;;34.95;15.55;;;;;;;;;;4923947;28;20039;-75
2023/03/02 09:28:37;;;;;;;42.00;15.85;;;;;;;;;;4910571;28;20039;-75
2023/03/02 09:31:04;;;;;;;35.63;17.25;;;;;;;;;;4923198;28;20097;-75
2023/03/02 09:33:31;;;;;;;40.80;16.92;;;;;;;;;;4923957;28;20084;-75
2023/03/02 09:35:57;;;;;;;30.42;16.08;;;;;;;;;;4936942;28;20047;-75
2023/03/02 09:38:23;;;;;;;26.00;15.82;;;;;;;;;;4922419;28;20085;-76
2023/03/02 09:40:52;;;;;;;26.35;15.55;;;;;;;;;;4921402;28;20055;-75
2023/03/02 09:43:27;;;;;;;30.08;16.65;;;;;;;;;;4924459;28;20039;-76
2023/03/02 09:45:53;;;;;;;27.38;15.98;;;;;;;;;;4937207;28;20071;-85
2023/03/02 09:48:23;;;;;;;24.13;14.38;;;;;;;;;;4916997;28;20600;-76
2023/03/02 09:50:53;;;;;;;25.30;15.13;;;;;;;;;;4912152;28;20513;-76
2023/03/02 09:53:45;;;;;;;27.65;16.42;;;;;;;;;;4915845;28;20125;-76
2023/03/02 09:56:16;;;;;;;30.88;16.23;;;;;;;;;;4882612;28;20229;-76
2023/03/02 09:58:47;;;;;;;25.00;15.48;;;;;;;;;;4908989;28;20216;-76
2023/03/02 10:01:15;;;;;;;28.25;14.88;;;;;;;;;;4939147;28;20695;-76
2023/03/02 10:03:47;;;;;;;28.60;16.60;;;;;;;;;;4923091;28;20047;-76
2023/03/02 10:06:13;;;;;;;29.25;16.85;;;;;;;;;;4923504;28;20044;-76
2023/03/02 10:08:42;;;;;;;28.00;16.40;;;;;;;;;;4922335;28;20388;-75
2023/03/02 10:11:20;;;;;;;26.15;15.35;;;;;;;;;;4922330;28;20686;-76
2023/03/02 10:14:05;;;;;;;27.88;15.77;;;;;;;;;;4929304;28;20043;-75
2023/03/02 10:16:31;;;;;;;;;;;;;;;;;;4913700;28;20880;-76
2023/03/02 10:19:12;;;;;;;22.02;14.10;;;;;;;;;;4943030;28;19965;-76
2023/03/02 10:21:46;;;;;;;22.90;13.38;;;;;;;;;;4912416;28;20039;-76
2023/03/02 10:24:18;;;;;;;23.02;14.43;;;;;;;;;;4924787;28;20047;-75
2023/03/02 10:26:47;;;;;;;21.85;13.77;;;;;;;;;;4908642;28;20522;-75
2023/03/02 10:29:32;;;;;;;20.63;12.68;;;;;;;;;;4924460;28;20051;-75
2023/03/02 10:32:13;;;;;;;23.60;14.07;;;;;;;;;;4923879;28;20112;-74
2023/03/02 10:34:39;;;;;;;21.30;13.02;;;;;;;;;;4925091;28;20051;-75
2023/03/02 10:37:12;;;;;;;21.20;13.18;;;;;;;;;;4909483;28;20135;-75
2023/03/02 10:39:38;;;;;;;21.35;14.13;;;;;;;;;;4910798;28;20162;-75
2023/03/02 10:42:06;;;;;;;23.23;14.30;;;;;;;;;;4926443;28;20807;-75
2023/03/02 10:44:36;;;;;;;23.27;13.88;;;;;;;;;;4921194;28;20174;-73
2023/03/02 10:47:03;;;;;;;25.17;14.40;;;;;;;;;;4918081;28;20055;-73
2023/03/02 10:49:29;;;;;;;26.23;15.95;;;;;;;;;;4924828;28;20060;-73
2023/03/02 10:52:24;;;;;;;26.17;16.63;;;;;;;;;;4921958;28;20050;-73
2023/03/02 10:55:01;;;;;;;24.13;15.63;;;;;;;;;;4884857;28;21673;-73
2023/03/02 10:57:29;;;;;;;24.50;14.93;;;;;;;;;;4921792;28;20494;-73
2023/03/02 11:00:14;;;;;;;20.35;13.43;;;;;;;;;;4905754;28;20077;-73
2023/03/02 11:02:47;;;;;;;26.77;14.07;;;;;;;;;;4917957;28;20046;-73
2023/03/02 11:05:16;;;;;;;21.55;13.60;;;;;;;;;;4920773;28;20145;-73
2023/03/02 11:07:51;;;;;;;22.08;13.75;;;;;;;;;;4919174;28;20058;-74
2023/03/02 11:10:18;;;;;;;20.65;13.25;;;;;;;;;;4907413;28;20191;-74
2023/03/02 11:12:46;;;;;;;20.58;13.73;;;;;;;;;;4920428;28;20523;-74
2023/03/02 11:15:21;;;;;;;19.83;12.93;;;;;;;;;;4920946;28;20177;-74
2023/03/02 11:17:50;;;;;;;20.92;13.35;;;;;;;;;;4918367;28;20175;-73
2023/03/02 11:20:28;;;;;;;21.77;13.25;;;;;;;;;;4921232;28;20039;-73
2023/03/02 11:23:13;;;;;;;20.13;12.85;;;;;;;;;;4921853;28;20047;-73
2023/03/02 11:25:39;;;;;;;;;;;;;;;;;;4927725;28;20058;-78
2023/03/02 11:28:11;;;;;;;18.17;12.32;;;;;;;;;;4909973;28;20396;-79
2023/03/02 11:30:41;;;;;;;18.45;12.20;;;;;;;;;;4922455;28;20051;-79
2023/03/02 11:33:14;;;;;;;20.83;13.40;;;;;;;;;;4938750;28;20097;-79
2023/03/02 11:35:58;;;;;;;19.93;14.30;;;;;;;;;;4908576;28;20066;-80
2023/03/02 11:38:26;;;;;;;21.55;14.27;;;;;;;;;;4909698;28;20047;-79
2023/03/02 11:41:02;;;;;;;19.95;13.23;;;;;;;;;;4908577;28;20047;-80
2023/03/02 11:43:28;;;;;;;17.95;12.43;;;;;;;;;;4920838;28;20039;-80
2023/03/02 11:45:57;;;;;;;18.42;13.40;;;;;;;;;;4907434;28;20428;-79
2023/03/02 11:48:38;;;;;;;17.48;12.52;;;;;;;;;;4918910;28;20039;-79
2023/03/02 11:51:12;;;;;;;16.33;12.85;;;;;;;;;;4925693;28;20419;-80
2023/03/02 11:53:43;;;;;;;18.98;12.90;;;;;;;;;;4924495;28;20759;-80
2023/03/02 11:56:09;;;;;;;19.90;12.30;;;;;;;;;;4920373;28;20069;-80
2023/03/02 11:58:36;;;;;;;18.02;13.30;;;;;;;;;;4925309;28;20058;-80
2023/03/02 12:01:02;;;;;;;21.77;14.35;;;;;;;;;;4924266;28;20042;-79
2023/03/02 12:03:32;;;;;;;20.13;14.52;;;;;;;;;;4926650;28;20046;-79
2023/03/02 12:05:59;;;;;;;22.35;15.55;;;;;;;;;;4929239;28;20182;-79
2023/03/02 12:08:52;;;;;;;22.80;16.15;;;;;;;;;;4949230;28;20083;-80
2023/03/02 12:11:18;;;;;;;22.02;16.08;;;;;;;;;;4935633;28;20082;-79
2023/03/02 12:14:01;;;;;;;19.05;13.20;;;;;;;;;;4938860;28;20046;-74
2023/03/02 12:16:44;;;;;;;20.55;14.40;;;;;;;;;;4947573;28;20047;-74
2023/03/02 12:19:25;;;;;;;17.38;13.70;;;;;;;;;;4931162;28;20047;-73
2023/03/02 12:21:57;;;;;;;20.00;14.02;;;;;;;;;;4931980;28;20057;-73
2023/03/02 12:24:27;;;;;;;19.65;13.38;;;;;;;;;;4930061;28;20644;-73
2023/03/02 12:27:04;;;;;;;19.75;13.48;;;;;;;;;;4930116;28;20399;-74
2023/03/02 12:29:44;;;;;;;18.38;13.32;;;;;;;;;;4929586;28;20134;-70
2023/03/02 12:32:30;;;;;;;19.23;14.02;;;;;;;;;;4948102;28;20655;-69
2023/03/02 12:35:08;;;;;;;18.15;12.93;;;;;;;;;;4947539;28;20162;-69
2023/03/02 12:37:52;;;;;;;18.05;13.32;;;;;;;;;;4910900;28;20047;-69
2023/03/02 12:40:27;;;;;;;20.90;13.70;;;;;;;;;;4927205;28;20129;-70
2023/03/02 12:42:59;;;;;;;16.88;13.13;;;;;;;;;;4943813;28;20658;-70
2023/03/02 12:45:41;;;;;;;18.30;13.98;;;;;;;;;;4936065;28;20047;-70
2023/03/02 12:48:33;;;;;;;18.27;13.75;;;;;;;;;;4926648;28;20403;-70
2023/03/02 12:51:00;;;;;;;19.92;13.93;;;;;;;;;;4886119;28;20062;-69
2023/03/02 12:53:27;;;;;;;18.08;13.60;;;;;;;;;;4924808;28;20625;-69
2023/03/02 12:55:53;;;;;;;19.63;13.85;;;;;;;;;;4925918;28;20054;-70
2023/03/02 12:58:21;;;;;;;17.58;13.27;;;;;;;;;;4944404;28;20141;-69
2023/03/02 13:01:05;;;;;;;17.60;13.27;;;;;;;;;;4928123;28;20130;-69
2023/03/02 13:03:31;;;;;;;16.58;12.05;;;;;;;;;;4928723;28;20105;-69
2023/03/02 13:06:01;;;;;;;22.00;13.70;;;;;;;;;;4927132;28;20043;-70
2023/03/02 13:08:28;;;;;;;16.42;12.27;;;;;;;;;;4949349;28;20047;-75
2023/03/02 13:10:55;;;;;;;15.98;11.82;;;;;;;;;;4928278;28;20082;-75
2023/03/02 13:13:33;;;;;;;17.05;12.73;;;;;;;;;;4924805;28;20877;-76
2023/03/02 13:16:00;;;;;;;15.52;12.38;;;;;;;;;;4918191;28;20508;-76
2023/03/02 13:18:30;;;;;;;15.55;11.80;;;;;;;;;;4922997;28;20054;-76
2023/03/02 13:20:57;;;;;;;16.25;12.18;;;;;;;;;;4908365;28;20092;-76
2023/03/02 13:23:23;;;;;;;18.75;11.75;;;;;;;;;;4934412;28;20055;-77
2023/03/02 13:25:51;;;;;;;17.17;12.75;;;;;;;;;;4901534;28;20047;-76
2023/03/02 13:28:46;;;;;;;13.73;10.98;;;;;;;;;;4922430;28;20743;-76
2023/03/02 13:31:20;;;;;;;15.25;11.32;;;;;;;;;;4902964;28;20158;-76
2023/03/02 13:33:47;;;;;;;13.67;10.63;;;;;;;;;;4915621;28;20057;-77
2023/03/02 13:36:21;;;;;;;13.68;9.98;;;;;;;;;;4930634;28;20138;-77
2023/03/02 13:38:54;;;;;;;12.23;9.70;;;;;;;;;;4931499;28;20047;-76
2023/03/02 13:41:39;;;;;;;11.75;8.85;;;;;;;;;;4929865;28;20400;-77
2023/03/02 13:44:20;;;;;;;14.23;9.80;;;;;;;;;;4921257;28;20042;-77
2023/03/02 13:46:47;;;;;;;15.60;10.55;;;;;;;;;;4928220;28;20043;-77
2023/03/02 13:49:13;;;;;;;13.90;9.77;;;;;;;;;;4938283;28;20558;-77
2023/03/02 13:51:40;;;;;;;13.10;8.95;;;;;;;;;;4930250;28;20038;-77
2023/03/02 13:54:14;;;;;;;13.57;10.52;;;;;;;;;;4931176;28;20047;-77
2023/03/02 13:56:40;;;;;;;14.18;10.32;;;;;;;;;;4930717;28;20338;-77
2023/03/02 13:59:13;;;;;;;13.73;10.32;;;;;;;;;;4922051;28;21752;-77
2023/03/02 14:01:43;;;;;;;11.68;8.57;;;;;;;;;;4927865;28;20516;-77
2023/03/02 14:04:13;;;;;;;13.73;9.45;;;;;;;;;;4926589;28;20043;-77
2023/03/02 14:06:39;;;;;;;14.13;9.93;;;;;;;;;;4929288;28;20117;-77
2023/03/02 14:09:06;;;;;;;16.05;11.05;;;;;;;;;;4914456;28;20059;-77
2023/03/02 14:11:35;;;;;;;16.65;10.65;;;;;;;;;;4928241;28;20675;-75
2023/03/02 14:14:02;;;;;;;15.93;11.10;;;;;;;;;;4928710;28;20057;-77
2023/03/02 14:16:28;;;;;;;13.40;10.15;;;;;;;;;;4928221;28;20073;-77
2023/03/02 14:18:56;;;;;;;18.15;10.15;;;;;;;;;;4929654;28;20473;-77
2023/03/02 14:21:23;;;;;;;14.35;9.65;;;;;;;;;;4897087;28;20047;-77
2023/03/02 14:23:51;;;;;;;16.02;11.80;;;;;;;;;;4926962;28;20093;-77